sensor_id;sensor_type;location;lat;lon;timestamp;temperature;humidity
26278;DHT22;14000;52.056;8.510;2023-07-13T00:01:16;17.30;99.90
26278;DHT22;14000;52.056;8.510;2023-07-13T00:03:42;17.20;99.90
26278;DHT22;14000;52.056;8.510;2023-07-13T00:06:09;17.20;99.90
26278;DHT22;14000;52.056;8.510;2023-07-13T00:08:35;17.10;99.90
26278;DHT22;14000;52.056;8.510;2023-07-13T00:11:01;17.00;99.90
26278;DHT22;14000;52.056;8.510;2023-07-13T00:13:28;17.10;99.90
26278;DHT22;14000;52.056;8.510;2023-07-13T00:15:54;17.00;99.90
26278;DHT22;14000;52.056;8.510;2023-07-13T00:18:21;17.00;99.90
26278;DHT22;14000;52.056;8.510;2023-07-13T00:20:47;17.00;99.90
26278;DHT22;14000;52.056;8.510;2023-07-13T00:23:16;16.90;99.90
26278;DHT22;14000;52.056;8.510;2023-07-13T00:25:42;16.90;99.90
26278;DHT22;14000;52.056;8.510;2023-07-13T00:28:08;16.80;99.90
26278;DHT22;14000;52.056;8.510;2023-07-13T00:30:33;16.80;99.90
26278;DHT22;14000;52.056;8.510;2023-07-13T00:32:59;16.80;99.90
26278;DHT22;14000;52.056;8.510;2023-07-13T00:35:27;16.80;99.90
26278;DHT22;14000;52.056;8.510;2023-07-13T00:37:52;16.90;99.90
26278;DHT22;14000;52.056;8.510;2023-07-13T00:40:18;16.90;99.90
26278;DHT22;14000;52.056;8.510;2023-07-13T00:42:44;17.00;99.90
26278;DHT22;14000;52.056;8.510;2023-07-13T00:47:38;17.00;99.90
26278;DHT22;14000;52.056;8.510;2023-07-13T00:50:07;17.10;99.90
26278;DHT22;14000;52.056;8.510;2023-07-13T00:52:36;17.10;99.90
26278;DHT22;14000;52.056;8.510;2023-07-13T00:55:02;17.10;99.90
26278;DHT22;14000;52.056;8.510;2023-07-13T00:57:28;17.10;99.90
26278;DHT22;14000;52.056;8.510;2023-07-13T00:59:58;17.20;99.90
26278;DHT22;14000;52.056;8.510;2023-07-13T01:02:25;17.10;99.90
26278;DHT22;14000;52.056;8.510;2023-07-13T01:04:51;17.10;99.90
26278;DHT22;14000;52.056;8.510;2023-07-13T01:07:18;17.10;99.90
26278;DHT22;14000;52.056;8.510;2023-07-13T01:09:44;17.10;99.90
26278;DHT22;14000;52.056;8.510;2023-07-13T01:12:10;17.10;99.90
26278;DHT22;14000;52.056;8.510;2023-07-13T01:14:36;17.00;99.90
26278;DHT22;14000;52.056;8.510;2023-07-13T01:17:02;17.00;99.90
26278;DHT22;14000;52.056;8.510;2023-07-13T01:19:43;17.00;99.90
26278;DHT22;14000;52.056;8.510;2023-07-13T01:22:14;17.00;99.90
26278;DHT22;14000;52.056;8.510;2023-07-13T01:24:43;17.10;99.90
26278;DHT22;14000;52.056;8.510;2023-07-13T01:27:10;17.10;99.90
26278;DHT22;14000;52.056;8.510;2023-07-13T01:29:37;17.10;99.90
26278;DHT22;14000;52.056;8.510;2023-07-13T01:32:09;17.10;99.90
26278;DHT22;14000;52.056;8.510;2023-07-13T01:34:35;17.20;99.90
26278;DHT22;14000;52.056;8.510;2023-07-13T01:37:03;17.20;99.90
26278;DHT22;14000;52.056;8.510;2023-07-13T01:39:29;17.20;99.90
26278;DHT22;14000;52.056;8.510;2023-07-13T01:41:54;17.20;99.90
26278;DHT22;14000;52.056;8.510;2023-07-13T01:44:20;17.20;99.90
26278;DHT22;14000;52.056;8.510;2023-07-13T01:46:45;17.30;99.90
26278;DHT22;14000;52.056;8.510;2023-07-13T01:49:11;17.30;99.90
26278;DHT22;14000;52.056;8.510;2023-07-13T01:51:37;17.30;99.90
26278;DHT22;14000;52.056;8.510;2023-07-13T01:54:02;17.30;99.90
26278;DHT22;14000;52.056;8.510;2023-07-13T01:56:28;17.40;99.90
26278;DHT22;14000;52.056;8.510;2023-07-13T01:58:53;17.40;99.90
26278;DHT22;14000;52.056;8.510;2023-07-13T02:01:19;17.40;99.90
26278;DHT22;14000;52.056;8.510;2023-07-13T02:03:45;17.40;99.90
26278;DHT22;14000;52.056;8.510;2023-07-13T02:06:12;17.40;99.90
26278;DHT22;14000;52.056;8.510;2023-07-13T02:08:37;17.40;99.90
26278;DHT22;14000;52.056;8.510;2023-07-13T02:11:03;17.40;99.90
26278;DHT22;14000;52.056;8.510;2023-07-13T02:13:29;17.50;99.90
26278;DHT22;14000;52.056;8.510;2023-07-13T02:15:54;17.40;99.90
26278;DHT22;14000;52.056;8.510;2023-07-13T02:18:20;17.40;99.90
26278;DHT22;14000;52.056;8.510;2023-07-13T02:20:46;17.40;99.90
26278;DHT22;14000;52.056;8.510;2023-07-13T02:23:12;17.30;99.90
26278;DHT22;14000;52.056;8.510;2023-07-13T02:25:37;17.20;99.90
26278;DHT22;14000;52.056;8.510;2023-07-13T02:28:03;17.30;99.90
26278;DHT22;14000;52.056;8.510;2023-07-13T02:30:29;17.20;99.90
26278;DHT22;14000;52.056;8.510;2023-07-13T02:32:56;17.10;99.90
26278;DHT22;14000;52.056;8.510;2023-07-13T02:35:22;17.10;99.90
26278;DHT22;14000;52.056;8.510;2023-07-13T02:37:47;17.00;99.90
26278;DHT22;14000;52.056;8.510;2023-07-13T02:40:13;17.00;99.90
26278;DHT22;14000;52.056;8.510;2023-07-13T02:42:39;17.00;99.90
26278;DHT22;14000;52.056;8.510;2023-07-13T02:45:06;17.00;99.90
26278;DHT22;14000;52.056;8.510;2023-07-13T02:47:33;16.90;99.90
26278;DHT22;14000;52.056;8.510;2023-07-13T02:49:58;16.90;99.90
26278;DHT22;14000;52.056;8.510;2023-07-13T02:52:24;16.90;99.90
26278;DHT22;14000;52.056;8.510;2023-07-13T02:54:50;16.80;99.90
26278;DHT22;14000;52.056;8.510;2023-07-13T02:57:16;16.70;99.90
26278;DHT22;14000;52.056;8.510;2023-07-13T02:59:41;16.70;99.90
26278;DHT22;14000;52.056;8.510;2023-07-13T03:02:07;16.70;99.90
26278;DHT22;14000;52.056;8.510;2023-07-13T03:04:38;16.60;99.90
26278;DHT22;14000;52.056;8.510;2023-07-13T03:07:04;16.60;99.90
26278;DHT22;14000;52.056;8.510;2023-07-13T03:09:32;16.60;99.90
26278;DHT22;14000;52.056;8.510;2023-07-13T03:12:01;16.60;99.90
26278;DHT22;14000;52.056;8.510;2023-07-13T03:14:27;16.50;99.90
26278;DHT22;14000;52.056;8.510;2023-07-13T03:16:52;16.50;99.90
26278;DHT22;14000;52.056;8.510;2023-07-13T03:19:18;16.50;99.90
26278;DHT22;14000;52.056;8.510;2023-07-13T03:21:44;16.50;99.90
26278;DHT22;14000;52.056;8.510;2023-07-13T03:24:10;16.50;99.90
26278;DHT22;14000;52.056;8.510;2023-07-13T03:26:36;16.50;99.90
26278;DHT22;14000;52.056;8.510;2023-07-13T03:29:02;16.50;99.90
26278;DHT22;14000;52.056;8.510;2023-07-13T03:31:32;16.50;99.90
26278;DHT22;14000;52.056;8.510;2023-07-13T03:33:58;16.40;99.90
26278;DHT22;14000;52.056;8.510;2023-07-13T03:36:27;16.40;99.90
26278;DHT22;14000;52.056;8.510;2023-07-13T03:38:55;16.50;99.90
26278;DHT22;14000;52.056;8.510;2023-07-13T03:41:21;16.50;99.90
26278;DHT22;14000;52.056;8.510;2023-07-13T03:43:48;16.50;99.90
26278;DHT22;14000;52.056;8.510;2023-07-13T03:46:14;16.40;99.90
26278;DHT22;14000;52.056;8.510;2023-07-13T03:48:41;16.40;99.90
26278;DHT22;14000;52.056;8.510;2023-07-13T03:51:09;16.40;99.90
26278;DHT22;14000;52.056;8.510;2023-07-13T03:53:39;16.40;99.90
26278;DHT22;14000;52.056;8.510;2023-07-13T03:56:06;16.40;99.90
26278;DHT22;14000;52.056;8.510;2023-07-13T03:58:34;16.40;99.90
26278;DHT22;14000;52.056;8.510;2023-07-13T04:01:01;16.30;99.90
26278;DHT22;14000;52.056;8.510;2023-07-13T04:03:28;16.30;99.90
26278;DHT22;14000;52.056;8.510;2023-07-13T04:05:55;16.30;99.90
26278;DHT22;14000;52.056;8.510;2023-07-13T04:08:26;16.30;99.90
26278;DHT22;14000;52.056;8.510;2023-07-13T04:10:52;16.30;99.90
26278;DHT22;14000;52.056;8.510;2023-07-13T04:13:17;16.30;99.90
26278;DHT22;14000;52.056;8.510;2023-07-13T04:15:43;16.30;99.90
26278;DHT22;14000;52.056;8.510;2023-07-13T04:18:09;16.30;99.90
26278;DHT22;14000;52.056;8.510;2023-07-13T04:20:34;16.40;99.90
26278;DHT22;14000;52.056;8.510;2023-07-13T04:23:00;16.40;99.90
26278;DHT22;14000;52.056;8.510;2023-07-13T04:25:26;16.40;99.90
26278;DHT22;14000;52.056;8.510;2023-07-13T04:27:52;16.30;99.90
26278;DHT22;14000;52.056;8.510;2023-07-13T04:30:19;16.30;99.90
26278;DHT22;14000;52.056;8.510;2023-07-13T04:32:44;16.20;99.90
26278;DHT22;14000;52.056;8.510;2023-07-13T04:35:10;16.20;99.90
26278;DHT22;14000;52.056;8.510;2023-07-13T04:37:35;16.20;99.90
26278;DHT22;14000;52.056;8.510;2023-07-13T04:40:02;16.20;99.90
26278;DHT22;14000;52.056;8.510;2023-07-13T04:42:29;16.20;99.90
26278;DHT22;14000;52.056;8.510;2023-07-13T04:44:55;16.30;99.90
26278;DHT22;14000;52.056;8.510;2023-07-13T04:47:20;16.30;99.90
26278;DHT22;14000;52.056;8.510;2023-07-13T04:49:46;16.30;99.90
26278;DHT22;14000;52.056;8.510;2023-07-13T04:52:12;16.30;99.90
26278;DHT22;14000;52.056;8.510;2023-07-13T04:54:38;16.30;99.90
26278;DHT22;14000;52.056;8.510;2023-07-13T04:57:04;16.30;99.90
26278;DHT22;14000;52.056;8.510;2023-07-13T04:59:34;16.30;99.90
26278;DHT22;14000;52.056;8.510;2023-07-13T05:02:00;16.30;99.90
26278;DHT22;14000;52.056;8.510;2023-07-13T05:04:26;16.30;99.90
26278;DHT22;14000;52.056;8.510;2023-07-13T05:06:52;16.30;99.90
26278;DHT22;14000;52.056;8.510;2023-07-13T05:09:18;16.30;99.90
26278;DHT22;14000;52.056;8.510;2023-07-13T05:11:43;16.30;99.90
26278;DHT22;14000;52.056;8.510;2023-07-13T05:14:09;16.30;99.90
26278;DHT22;14000;52.056;8.510;2023-07-13T05:16:35;16.30;99.90
26278;DHT22;14000;52.056;8.510;2023-07-13T05:19:02;16.30;99.90
26278;DHT22;14000;52.056;8.510;2023-07-13T05:21:28;16.40;99.90
26278;DHT22;14000;52.056;8.510;2023-07-13T05:23:54;16.40;99.90
26278;DHT22;14000;52.056;8.510;2023-07-13T05:26:20;16.40;99.90
26278;DHT22;14000;52.056;8.510;2023-07-13T05:28:46;16.40;99.90
26278;DHT22;14000;52.056;8.510;2023-07-13T05:31:12;16.50;99.90
26278;DHT22;14000;52.056;8.510;2023-07-13T05:33:38;16.50;99.90
26278;DHT22;14000;52.056;8.510;2023-07-13T05:36:04;16.50;99.90
26278;DHT22;14000;52.056;8.510;2023-07-13T05:38:29;16.50;99.90
26278;DHT22;14000;52.056;8.510;2023-07-13T05:40:56;16.50;99.90
26278;DHT22;14000;52.056;8.510;2023-07-13T05:43:22;16.60;99.90
26278;DHT22;14000;52.056;8.510;2023-07-13T05:45:48;16.60;99.90
26278;DHT22;14000;52.056;8.510;2023-07-13T05:48:14;16.70;99.90
26278;DHT22;14000;52.056;8.510;2023-07-13T05:50:40;16.70;99.90
26278;DHT22;14000;52.056;8.510;2023-07-13T05:53:06;16.70;99.90
26278;DHT22;14000;52.056;8.510;2023-07-13T05:55:32;16.80;99.90
26278;DHT22;14000;52.056;8.510;2023-07-13T05:57:58;16.80;99.90
26278;DHT22;14000;52.056;8.510;2023-07-13T06:00:24;16.80;99.90
26278;DHT22;14000;52.056;8.510;2023-07-13T06:02:50;16.80;99.90
26278;DHT22;14000;52.056;8.510;2023-07-13T06:05:16;16.80;99.90
26278;DHT22;14000;52.056;8.510;2023-07-13T06:07:42;16.80;99.90
26278;DHT22;14000;52.056;8.510;2023-07-13T06:10:07;16.80;99.90
26278;DHT22;14000;52.056;8.510;2023-07-13T06:12:33;16.90;99.90
26278;DHT22;14000;52.056;8.510;2023-07-13T06:14:59;16.90;99.90
26278;DHT22;14000;52.056;8.510;2023-07-13T06:17:24;17.00;99.90
26278;DHT22;14000;52.056;8.510;2023-07-13T06:19:50;17.00;99.90
26278;DHT22;14000;52.056;8.510;2023-07-13T06:22:15;17.00;99.90
26278;DHT22;14000;52.056;8.510;2023-07-13T06:24:41;17.10;99.90
26278;DHT22;14000;52.056;8.510;2023-07-13T06:27:06;17.10;99.90
26278;DHT22;14000;52.056;8.510;2023-07-13T06:29:33;17.20;99.90
26278;DHT22;14000;52.056;8.510;2023-07-13T06:31:58;17.20;99.90
26278;DHT22;14000;52.056;8.510;2023-07-13T06:34:24;17.10;99.90
26278;DHT22;14000;52.056;8.510;2023-07-13T06:36:49;17.20;99.90
26278;DHT22;14000;52.056;8.510;2023-07-13T06:39:15;17.20;99.90
26278;DHT22;14000;52.056;8.510;2023-07-13T06:41:41;17.20;99.90
26278;DHT22;14000;52.056;8.510;2023-07-13T06:44:06;17.20;99.90
26278;DHT22;14000;52.056;8.510;2023-07-13T06:46:32;17.30;99.90
26278;DHT22;14000;52.056;8.510;2023-07-13T06:48:58;17.30;99.90
26278;DHT22;14000;52.056;8.510;2023-07-13T06:51:24;17.40;99.90
26278;DHT22;14000;52.056;8.510;2023-07-13T06:53:51;17.40;99.90
26278;DHT22;14000;52.056;8.510;2023-07-13T06:56:17;17.50;99.90
26278;DHT22;14000;52.056;8.510;2023-07-13T06:58:42;17.50;99.90
26278;DHT22;14000;52.056;8.510;2023-07-13T07:01:09;17.60;99.90
26278;DHT22;14000;52.056;8.510;2023-07-13T07:03:35;17.60;99.90
26278;DHT22;14000;52.056;8.510;2023-07-13T07:06:03;17.60;99.90
26278;DHT22;14000;52.056;8.510;2023-07-13T07:08:32;17.60;99.90
26278;DHT22;14000;52.056;8.510;2023-07-13T07:10:58;17.60;99.90
26278;DHT22;14000;52.056;8.510;2023-07-13T07:13:24;17.60;99.90
26278;DHT22;14000;52.056;8.510;2023-07-13T07:15:50;17.70;99.90
26278;DHT22;14000;52.056;8.510;2023-07-13T07:18:16;17.70;99.90
26278;DHT22;14000;52.056;8.510;2023-07-13T07:20:41;17.80;99.90
26278;DHT22;14000;52.056;8.510;2023-07-13T07:23:07;17.80;99.90
26278;DHT22;14000;52.056;8.510;2023-07-13T07:25:32;17.90;99.90
26278;DHT22;14000;52.056;8.510;2023-07-13T07:28:02;17.90;99.90
26278;DHT22;14000;52.056;8.510;2023-07-13T07:30:28;18.00;99.90
26278;DHT22;14000;52.056;8.510;2023-07-13T07:32:53;18.00;99.90
26278;DHT22;14000;52.056;8.510;2023-07-13T07:35:19;18.10;99.90
26278;DHT22;14000;52.056;8.510;2023-07-13T07:37:45;18.10;99.90
26278;DHT22;14000;52.056;8.510;2023-07-13T07:40:10;18.30;99.90
26278;DHT22;14000;52.056;8.510;2023-07-13T07:42:36;18.30;99.90
26278;DHT22;14000;52.056;8.510;2023-07-13T07:45:01;18.50;99.90
26278;DHT22;14000;52.056;8.510;2023-07-13T07:47:27;18.50;99.90
26278;DHT22;14000;52.056;8.510;2023-07-13T07:49:53;18.60;99.90
26278;DHT22;14000;52.056;8.510;2023-07-13T07:52:19;18.60;99.90
26278;DHT22;14000;52.056;8.510;2023-07-13T07:54:44;18.70;99.90
26278;DHT22;14000;52.056;8.510;2023-07-13T07:57:10;18.70;99.90
26278;DHT22;14000;52.056;8.510;2023-07-13T07:59:37;18.90;99.90
26278;DHT22;14000;52.056;8.510;2023-07-13T08:02:02;19.00;99.90
26278;DHT22;14000;52.056;8.510;2023-07-13T08:04:28;19.10;99.90
26278;DHT22;14000;52.056;8.510;2023-07-13T08:06:54;19.20;99.90
26278;DHT22;14000;52.056;8.510;2023-07-13T08:09:21;19.10;99.90
26278;DHT22;14000;52.056;8.510;2023-07-13T08:11:47;19.00;99.90
26278;DHT22;14000;52.056;8.510;2023-07-13T08:14:13;19.10;99.90
26278;DHT22;14000;52.056;8.510;2023-07-13T08:16:39;19.30;99.90
26278;DHT22;14000;52.056;8.510;2023-07-13T08:19:05;19.50;99.90
26278;DHT22;14000;52.056;8.510;2023-07-13T08:21:31;19.60;99.90
26278;DHT22;14000;52.056;8.510;2023-07-13T08:23:57;19.60;99.90
26278;DHT22;14000;52.056;8.510;2023-07-13T08:26:23;19.60;99.90
26278;DHT22;14000;52.056;8.510;2023-07-13T08:28:49;19.70;99.90
26278;DHT22;14000;52.056;8.510;2023-07-13T08:31:15;19.70;99.90
26278;DHT22;14000;52.056;8.510;2023-07-13T08:33:40;19.80;99.90
26278;DHT22;14000;52.056;8.510;2023-07-13T08:36:06;19.90;99.90
26278;DHT22;14000;52.056;8.510;2023-07-13T08:38:32;20.00;99.90
26278;DHT22;14000;52.056;8.510;2023-07-13T08:40:58;20.00;99.90
26278;DHT22;14000;52.056;8.510;2023-07-13T08:43:29;20.00;99.90
26278;DHT22;14000;52.056;8.510;2023-07-13T08:46:02;20.10;99.90
26278;DHT22;14000;52.056;8.510;2023-07-13T08:48:38;20.20;99.90
26278;DHT22;14000;52.056;8.510;2023-07-13T08:53:49;20.20;99.90
26278;DHT22;14000;52.056;8.510;2023-07-13T08:56:21;20.20;99.90
26278;DHT22;14000;52.056;8.510;2023-07-13T08:58:51;20.20;99.90
26278;DHT22;14000;52.056;8.510;2023-07-13T09:04:17;20.30;99.90
26278;DHT22;14000;52.056;8.510;2023-07-13T09:07:11;20.30;99.90
26278;DHT22;14000;52.056;8.510;2023-07-13T09:12:40;20.30;99.90
26278;DHT22;14000;52.056;8.510;2023-07-13T09:15:25;20.40;99.90
26278;DHT22;14000;52.056;8.510;2023-07-13T09:17:59;20.50;99.90
26278;DHT22;14000;52.056;8.510;2023-07-13T09:20:28;20.60;99.90
26278;DHT22;14000;52.056;8.510;2023-07-13T09:22:59;20.60;99.90
26278;DHT22;14000;52.056;8.510;2023-07-13T09:25:31;20.50;99.90
26278;DHT22;14000;52.056;8.510;2023-07-13T09:28:05;20.50;99.90
26278;DHT22;14000;52.056;8.510;2023-07-13T09:30:40;20.60;99.90
26278;DHT22;14000;52.056;8.510;2023-07-13T09:33:08;20.70;99.90
26278;DHT22;14000;52.056;8.510;2023-07-13T09:35:35;20.70;99.90
26278;DHT22;14000;52.056;8.510;2023-07-13T09:38:17;20.70;99.90
26278;DHT22;14000;52.056;8.510;2023-07-13T09:43:34;20.60;99.90
26278;DHT22;14000;52.056;8.510;2023-07-13T09:46:00;20.50;99.90
26278;DHT22;14000;52.056;8.510;2023-07-13T09:48:34;20.60;99.90
26278;DHT22;14000;52.056;8.510;2023-07-13T09:51:12;20.70;99.90
26278;DHT22;14000;52.056;8.510;2023-07-13T09:53:42;20.90;99.90
26278;DHT22;14000;52.056;8.510;2023-07-13T09:56:22;21.00;99.90
26278;DHT22;14000;52.056;8.510;2023-07-13T09:58:48;21.00;99.90
26278;DHT22;14000;52.056;8.510;2023-07-13T10:01:14;21.10;99.90
26278;DHT22;14000;52.056;8.510;2023-07-13T10:03:52;21.20;99.90
26278;DHT22;14000;52.056;8.510;2023-07-13T10:06:20;21.40;99.90
26278;DHT22;14000;52.056;8.510;2023-07-13T10:08:50;21.30;99.90
26278;DHT22;14000;52.056;8.510;2023-07-13T10:11:20;21.30;99.90
26278;DHT22;14000;52.056;8.510;2023-07-13T10:16:17;21.70;99.90
26278;DHT22;14000;52.056;8.510;2023-07-13T10:18:47;21.70;99.90
26278;DHT22;14000;52.056;8.510;2023-07-13T10:21:21;21.70;99.90
26278;DHT22;14000;52.056;8.510;2023-07-13T10:23:53;21.70;99.90
26278;DHT22;14000;52.056;8.510;2023-07-13T10:26:25;21.70;99.90
26278;DHT22;14000;52.056;8.510;2023-07-13T10:28:54;21.70;99.90
26278;DHT22;14000;52.056;8.510;2023-07-13T10:31:22;21.90;99.90
26278;DHT22;14000;52.056;8.510;2023-07-13T10:33:49;21.90;99.90
26278;DHT22;14000;52.056;8.510;2023-07-13T10:36:47;22.10;99.90
26278;DHT22;14000;52.056;8.510;2023-07-13T10:39:26;21.90;99.90
26278;DHT22;14000;52.056;8.510;2023-07-13T10:42:00;21.70;99.90
26278;DHT22;14000;52.056;8.510;2023-07-13T10:44:30;21.50;99.90
26278;DHT22;14000;52.056;8.510;2023-07-13T10:47:02;21.60;99.90
26278;DHT22;14000;52.056;8.510;2023-07-13T10:49:31;21.70;99.90
26278;DHT22;14000;52.056;8.510;2023-07-13T10:51:58;21.90;99.90
26278;DHT22;14000;52.056;8.510;2023-07-13T10:54:31;22.10;99.90
26278;DHT22;14000;52.056;8.510;2023-07-13T10:57:16;22.30;99.90
26278;DHT22;14000;52.056;8.510;2023-07-13T10:59:48;22.20;99.90
26278;DHT22;14000;52.056;8.510;2023-07-13T11:02:23;22.20;99.90
26278;DHT22;14000;52.056;8.510;2023-07-13T11:04:53;22.30;99.90
26278;DHT22;14000;52.056;8.510;2023-07-13T11:07:22;22.50;99.90
26278;DHT22;14000;52.056;8.510;2023-07-13T11:09:52;22.60;99.90
26278;DHT22;14000;52.056;8.510;2023-07-13T11:25:31;25.50;99.90
26278;DHT22;14000;52.056;8.510;2023-07-13T11:36:07;23.70;99.90
26278;DHT22;14000;52.056;8.510;2023-07-13T11:39:03;23.10;99.90
26278;DHT22;14000;52.056;8.510;2023-07-13T11:41:30;22.50;99.90
26278;DHT22;14000;52.056;8.510;2023-07-13T11:44:27;22.30;99.90
26278;DHT22;14000;52.056;8.510;2023-07-13T11:46:57;23.40;99.90
26278;DHT22;14000;52.056;8.510;2023-07-13T11:49:31;24.60;99.90
26278;DHT22;14000;52.056;8.510;2023-07-13T11:51:57;25.40;99.90
26278;DHT22;14000;52.056;8.510;2023-07-13T11:54:42;25.60;99.90
26278;DHT22;14000;52.056;8.510;2023-07-13T11:57:32;25.60;99.90
26278;DHT22;14000;52.056;8.510;2023-07-13T12:00:15;25.50;99.90
26278;DHT22;14000;52.056;8.510;2023-07-13T12:02:49;25.20;99.90
26278;DHT22;14000;52.056;8.510;2023-07-13T12:05:17;25.20;99.90
26278;DHT22;14000;52.056;8.510;2023-07-13T12:07:44;25.40;99.90
26278;DHT22;14000;52.056;8.510;2023-07-13T12:12:57;26.50;99.90
26278;DHT22;14000;52.056;8.510;2023-07-13T12:15:28;27.10;99.90
26278;DHT22;14000;52.056;8.510;2023-07-13T12:17:56;26.40;99.90
26278;DHT22;14000;52.056;8.510;2023-07-13T12:20:28;25.70;99.90
26278;DHT22;14000;52.056;8.510;2023-07-13T12:22:58;25.10;99.90
26278;DHT22;14000;52.056;8.510;2023-07-13T12:25:24;24.40;99.90
26278;DHT22;14000;52.056;8.510;2023-07-13T12:27:51;24.10;99.90
26278;DHT22;14000;52.056;8.510;2023-07-13T12:30:32;24.20;99.90
26278;DHT22;14000;52.056;8.510;2023-07-13T12:33:10;24.20;99.90
26278;DHT22;14000;52.056;8.510;2023-07-13T12:35:47;24.10;99.90
26278;DHT22;14000;52.056;8.510;2023-07-13T12:38:15;23.90;99.90
26278;DHT22;14000;52.056;8.510;2023-07-13T12:40:41;24.00;99.90
26278;DHT22;14000;52.056;8.510;2023-07-13T12:43:12;24.10;99.90
26278;DHT22;14000;52.056;8.510;2023-07-13T12:45:38;24.40;99.90
26278;DHT22;14000;52.056;8.510;2023-07-13T12:48:12;24.30;99.90
26278;DHT22;14000;52.056;8.510;2023-07-13T12:50:41;24.20;99.90
26278;DHT22;14000;52.056;8.510;2023-07-13T12:53:28;24.30;99.90
26278;DHT22;14000;52.056;8.510;2023-07-13T12:55:56;24.60;99.90
26278;DHT22;14000;52.056;8.510;2023-07-13T12:58:37;24.30;99.90
26278;DHT22;14000;52.056;8.510;2023-07-13T13:01:04;24.10;99.90
26278;DHT22;14000;52.056;8.510;2023-07-13T13:03:37;24.00;99.90
26278;DHT22;14000;52.056;8.510;2023-07-13T13:08:46;23.60;99.90
26278;DHT22;14000;52.056;8.510;2023-07-13T13:11:11;23.60;99.90
26278;DHT22;14000;52.056;8.510;2023-07-13T13:13:37;23.80;99.90
26278;DHT22;14000;52.056;8.510;2023-07-13T13:16:31;23.90;99.90
26278;DHT22;14000;52.056;8.510;2023-07-13T13:18:59;23.90;99.90
26278;DHT22;14000;52.056;8.510;2023-07-13T13:21:25;23.90;99.90
26278;DHT22;14000;52.056;8.510;2023-07-13T13:23:51;23.80;99.90
26278;DHT22;14000;52.056;8.510;2023-07-13T13:26:19;23.60;99.90
26278;DHT22;14000;52.056;8.510;2023-07-13T13:28:45;23.60;99.90
26278;DHT22;14000;52.056;8.510;2023-07-13T13:31:13;23.50;99.90
26278;DHT22;14000;52.056;8.510;2023-07-13T13:33:40;23.30;99.90
26278;DHT22;14000;52.056;8.510;2023-07-13T13:36:16;23.10;99.90
26278;DHT22;14000;52.056;8.510;2023-07-13T13:38:42;22.70;99.90
26278;DHT22;14000;52.056;8.510;2023-07-13T13:41:13;22.50;99.90
26278;DHT22;14000;52.056;8.510;2023-07-13T13:43:40;22.10;99.90
26278;DHT22;14000;52.056;8.510;2023-07-13T13:46:23;21.70;99.90
26278;DHT22;14000;52.056;8.510;2023-07-13T13:48:50;21.50;99.90
26278;DHT22;14000;52.056;8.510;2023-07-13T13:51:21;21.00;99.90
26278;DHT22;14000;52.056;8.510;2023-07-13T13:53:48;20.10;99.90
26278;DHT22;14000;52.056;8.510;2023-07-13T13:56:14;19.40;99.90
26278;DHT22;14000;52.056;8.510;2023-07-13T13:58:41;18.90;99.90
26278;DHT22;14000;52.056;8.510;2023-07-13T14:01:20;18.50;99.90
26278;DHT22;14000;52.056;8.510;2023-07-13T14:03:47;18.10;99.90
26278;DHT22;14000;52.056;8.510;2023-07-13T14:06:15;17.80;99.90
26278;DHT22;14000;52.056;8.510;2023-07-13T14:08:41;17.60;99.90
26278;DHT22;14000;52.056;8.510;2023-07-13T14:11:11;17.50;99.90
26278;DHT22;14000;52.056;8.510;2023-07-13T14:13:42;17.50;99.90
26278;DHT22;14000;52.056;8.510;2023-07-13T14:16:15;17.60;99.90
26278;DHT22;14000;52.056;8.510;2023-07-13T14:18:43;17.70;99.90
26278;DHT22;14000;52.056;8.510;2023-07-13T14:21:17;17.70;99.90
26278;DHT22;14000;52.056;8.510;2023-07-13T14:23:44;17.60;99.90
26278;DHT22;14000;52.056;8.510;2023-07-13T14:26:14;17.60;99.90
26278;DHT22;14000;52.056;8.510;2023-07-13T14:28:45;17.60;99.90
26278;DHT22;14000;52.056;8.510;2023-07-13T14:31:13;17.70;99.90
26278;DHT22;14000;52.056;8.510;2023-07-13T14:33:39;17.60;99.90
26278;DHT22;14000;52.056;8.510;2023-07-13T14:36:36;17.70;99.90
26278;DHT22;14000;52.056;8.510;2023-07-13T14:39:19;17.50;99.90
26278;DHT22;14000;52.056;8.510;2023-07-13T14:41:45;17.40;99.90
26278;DHT22;14000;52.056;8.510;2023-07-13T14:44:15;17.40;99.90
26278;DHT22;14000;52.056;8.510;2023-07-13T14:46:42;17.30;99.90
26278;DHT22;14000;52.056;8.510;2023-07-13T14:51:58;16.90;99.90
26278;DHT22;14000;52.056;8.510;2023-07-13T14:54:24;16.70;99.90
26278;DHT22;14000;52.056;8.510;2023-07-13T14:56:50;16.50;99.90
26278;DHT22;14000;52.056;8.510;2023-07-13T14:59:16;16.50;99.90
26278;DHT22;14000;52.056;8.510;2023-07-13T15:01:44;16.60;99.90
26278;DHT22;14000;52.056;8.510;2023-07-13T15:04:10;16.50;99.90
26278;DHT22;14000;52.056;8.510;2023-07-13T15:06:57;16.40;99.90
26278;DHT22;14000;52.056;8.510;2023-07-13T15:09:23;16.30;99.90
26278;DHT22;14000;52.056;8.510;2023-07-13T15:11:55;16.30;99.90
26278;DHT22;14000;52.056;8.510;2023-07-13T15:14:21;16.20;99.90
26278;DHT22;14000;52.056;8.510;2023-07-13T15:16:49;16.20;99.90
26278;DHT22;14000;52.056;8.510;2023-07-13T15:19:15;16.40;99.90
26278;DHT22;14000;52.056;8.510;2023-07-13T15:21:42;16.30;99.90
26278;DHT22;14000;52.056;8.510;2023-07-13T15:24:10;16.30;99.90
26278;DHT22;14000;52.056;8.510;2023-07-13T15:26:35;16.30;99.90
26278;DHT22;14000;52.056;8.510;2023-07-13T15:29:02;16.50;99.90
26278;DHT22;14000;52.056;8.510;2023-07-13T15:31:28;16.40;99.90
26278;DHT22;14000;52.056;8.510;2023-07-13T15:33:56;16.40;99.90
26278;DHT22;14000;52.056;8.510;2023-07-13T15:36:23;16.50;99.90
26278;DHT22;14000;52.056;8.510;2023-07-13T15:38:51;16.50;99.90
26278;DHT22;14000;52.056;8.510;2023-07-13T15:41:22;16.50;99.90
26278;DHT22;14000;52.056;8.510;2023-07-13T15:43:54;16.50;99.90
26278;DHT22;14000;52.056;8.510;2023-07-13T15:46:22;16.50;99.90
26278;DHT22;14000;52.056;8.510;2023-07-13T15:48:49;16.60;99.90
26278;DHT22;14000;52.056;8.510;2023-07-13T15:51:23;16.60;99.90
26278;DHT22;14000;52.056;8.510;2023-07-13T15:53:50;16.60;99.90
26278;DHT22;14000;52.056;8.510;2023-07-13T15:56:24;16.60;99.90
26278;DHT22;14000;52.056;8.510;2023-07-13T15:58:51;16.60;99.90
26278;DHT22;14000;52.056;8.510;2023-07-13T16:01:17;16.70;99.90
26278;DHT22;14000;52.056;8.510;2023-07-13T16:03:46;16.70;99.90
26278;DHT22;14000;52.056;8.510;2023-07-13T16:06:18;16.80;99.90
26278;DHT22;14000;52.056;8.510;2023-07-13T16:08:46;16.90;99.90
26278;DHT22;14000;52.056;8.510;2023-07-13T16:11:17;17.00;99.90
26278;DHT22;14000;52.056;8.510;2023-07-13T16:13:45;17.00;99.90
26278;DHT22;14000;52.056;8.510;2023-07-13T16:16:12;17.00;99.90
26278;DHT22;14000;52.056;8.510;2023-07-13T16:18:38;17.00;99.90
26278;DHT22;14000;52.056;8.510;2023-07-13T16:21:10;17.20;99.90
26278;DHT22;14000;52.056;8.510;2023-07-13T16:23:36;17.40;99.90